Time;durP1;ratioP1;P1;durP2;ratioP2;P2;SDS_P1;SDS_P2;PMS_P1;PMS_P2;Temp;Humidity;BMP_temperature;BMP_pressure;BME280_temperature;BME280_humidity;BME280_pressure;Samples;Min_cycle;Max_cycle;Signal;HPM_P1;HPM_P2
2022/04/10 00:02:17;;;;;;;2.23;2.03;;;7.50;55.50;;;;;;6297655;28;20475;-64
2022/04/10 00:05:20;;;;;;;1.97;1.77;;;7.50;56.50;;;;;;6299802;28;20465;-65
2022/04/10 00:08:23;;;;;;;1.90;1.40;;;7.50;55.60;;;;;;6299612;28;20481;-65
2022/04/10 00:11:29;;;;;;;3.90;2.43;;;7.50;55.50;;;;;;6299401;28;20492;-66
2022/04/10 00:14:32;;;;;;;3.60;2.67;;;7.40;56.90;;;;;;6299279;28;20484;-65
2022/04/10 00:17:35;;;;;;;3.30;2.80;;;7.20;59.40;;;;;;6302060;28;20469;-65
2022/04/10 00:20:38;;;;;;;3.40;2.40;;;7.10;60.80;;;;;;6302164;28;20474;-65
2022/04/10 00:23:41;;;;;;;3.60;2.73;;;6.60;62.90;;;;;;6302069;28;20477;-66
2022/04/10 00:26:46;;;;;;;3.70;2.77;;;6.20;64.30;;;;;;6304070;28;20473;-66
2022/04/10 00:29:49;;;;;;;2.53;2.37;;;6.20;64.70;;;;;;6306466;28;20478;-66
2022/04/10 00:32:57;;;;;;;2.80;2.60;;;6.10;65.10;;;;;;6305906;28;20481;-65
2022/04/10 00:36:00;;;;;;;3.30;2.80;;;6.10;65.30;;;;;;6305710;28;20944;-64
2022/04/10 00:39:04;;;;;;;2.13;1.97;;;6.10;65.60;;;;;;6305313;28;20463;-65
2022/04/10 00:42:08;;;;;;;2.47;2.17;;;6.20;65.30;;;;;;6306643;28;21053;-65
2022/04/10 00:45:12;;;;;;;2.17;1.97;;;6.30;65.40;;;;;;6305324;28;20484;-65
2022/04/10 00:48:17;;;;;;;6.87;2.70;;;6.30;65.40;;;;;;6303852;28;20484;-66
2022/04/10 00:54:43;;;;;;;2.60;2.40;;;6.30;65.70;;;;;;6328857;28;20475;-64
2022/04/10 00:57:49;;;;;;;3.40;1.83;;;6.30;65.50;;;;;;6312452;28;20526;-65
2022/04/10 01:00:52;;;;;;;2.10;1.90;;;6.40;65.40;;;;;;6304808;28;20472;-65
2022/04/10 01:03:56;;;;;;;2.27;1.80;;;6.50;63.40;;;;;;6323799;28;20555;-66
2022/04/10 01:07:01;;;;;;;2.60;1.80;;;6.50;62.30;;;;;;6334193;28;20478;-65
2022/04/10 01:10:06;;;;;;;1.70;1.60;;;6.60;61.50;;;;;;6323274;28;20533;-65
2022/04/10 01:13:12;;;;;;;1.90;1.80;;;6.60;59.50;;;;;;6828908;22;21745;-62
2022/04/10 01:16:17;;;;;;;1.80;1.60;;;6.70;58.80;;;;;;6305709;28;20487;-62
2022/04/10 01:19:21;;;;;;;1.50;1.40;;;6.70;59.50;;;;;;6301933;28;20469;-62
2022/04/10 01:22:32;;;;;;;2.53;1.20;;;6.80;58.50;;;;;;6290242;28;20954;-63
2022/04/10 01:25:36;;;;;;;1.60;1.50;;;6.80;60.30;;;;;;6303648;28;20476;-62
2022/04/10 01:28:58;;;;;;;1.67;1.23;;;6.80;58.70;;;;;;6301256;28;20531;-61
2022/04/10 01:32:02;;;;;;;4.10;1.33;;;7.00;58.50;;;;;;6301300;28;20471;-61
2022/04/10 01:35:07;;;;;;;2.70;1.37;;;7.00;59.50;;;;;;6301018;28;20452;-61
2022/04/10 01:38:13;;;;;;;3.73;1.80;;;7.10;59.80;;;;;;6300615;28;20520;-61
2022/04/10 01:41:16;;;;;;;2.50;1.57;;;7.20;59.00;;;;;;6302091;28;20453;-61
2022/04/10 01:44:20;;;;;;;1.27;1.17;;;7.10;58.80;;;;;;6301722;28;20964;-61
2022/04/10 01:47:23;;;;;;;1.40;1.20;;;7.10;59.40;;;;;;6301890;28;20484;-61
2022/04/10 01:50:27;;;;;;;1.00;1.00;;;7.20;59.50;;;;;;6287269;28;20458;-61
2022/04/10 01:53:31;;;;;;;1.30;1.20;;;7.20;58.50;;;;;;6285346;28;20465;-61
2022/04/10 01:56:34;;;;;;;3.20;1.50;;;7.20;58.00;;;;;;6300498;28;20548;-61
2022/04/10 01:59:38;;;;;;;2.63;1.50;;;7.20;57.50;;;;;;6300141;28;20470;-61
2022/04/10 02:02:41;;;;;;;2.10;1.10;;;7.10;58.00;;;;;;6300467;28;20485;-61
2022/04/10 02:05:44;;;;;;;1.40;1.30;;;7.10;57.60;;;;;;6300551;28;20583;-61
2022/04/10 02:08:49;;;;;;;1.33;1.23;;;7.20;57.40;;;;;;6300119;28;20488;-61
2022/04/10 02:11:52;;;;;;;5.30;1.80;;;7.10;57.00;;;;;;6301234;28;20481;-60
2022/04/10 02:14:55;;;;;;;1.10;1.10;;;7.10;56.80;;;;;;6301991;28;20469;-60
2022/04/10 02:17:58;;;;;;;4.20;2.43;;;7.10;57.70;;;;;;6283406;28;20844;-59
2022/04/10 02:21:01;;;;;;;2.00;1.50;;;7.10;56.80;;;;;;6276400;28;20477;-59
2022/04/10 02:24:07;;;;;;;2.23;1.00;;;7.10;56.60;;;;;;6276463;28;20489;-61
2022/04/10 02:27:10;;;;;;;1.33;1.17;;;7.10;57.00;;;;;;6275938;28;20946;-61
2022/04/10 02:30:13;;;;;;;2.50;1.40;;;7.10;56.60;;;;;;6276055;28;20467;-61
2022/04/10 02:33:16;;;;;;;1.90;1.07;;;7.00;57.30;;;;;;6274965;28;20489;-60
2022/04/10 02:36:19;;;;;;;1.10;1.10;;;7.00;57.40;;;;;;6274919;28;20789;-60
2022/04/10 02:39:24;;;;;;;4.20;1.30;;;7.00;56.70;;;;;;6274680;28;20466;-61
2022/04/10 02:42:27;;;;;;;1.17;1.00;;;6.90;56.40;;;;;;6274187;28;20482;-61
2022/04/10 02:45:30;;;;;;;4.50;1.20;;;6.90;56.40;;;;;;6274697;28;20950;-61
2022/04/10 02:48:34;;;;;;;2.67;1.40;;;6.80;55.30;;;;;;6274259;28;20490;-60
2022/04/10 02:51:37;;;;;;;1.00;0.90;;;6.80;55.30;;;;;;6274347;28;20470;-60
2022/04/10 02:54:41;;;;;;;1.17;1.03;;;6.80;55.70;;;;;;6273793;28;20960;-62
2022/04/10 02:57:44;;;;;;;1.00;1.00;;;6.80;55.20;;;;;;6274015;28;20470;-60
2022/04/10 03:00:47;;;;;;;1.27;1.17;;;6.80;55.20;;;;;;6274098;28;20817;-60
2022/04/10 03:03:51;;;;;;;3.13;1.10;;;6.80;55.30;;;;;;6275527;28;20474;-60
2022/04/10 03:06:54;;;;;;;1.33;1.20;;;6.80;55.40;;;;;;6274509;28;20675;-60
2022/04/10 03:09:58;;;;;;;1.40;1.30;;;6.90;55.30;;;;;;6274124;28;20465;-60
2022/04/10 03:13:01;;;;;;;1.20;1.10;;;6.80;55.60;;;;;;6274224;28;20486;-60
2022/04/10 03:16:05;;;;;;;2.03;1.90;;;6.80;56.20;;;;;;6274446;28;20504;-61
2022/04/10 03:19:08;;;;;;;2.20;1.23;;;6.90;55.50;;;;;;6274242;28;20549;-60
2022/04/10 03:22:11;;;;;;;1.13;1.13;;;6.90;55.90;;;;;;6274219;28;20478;-60
2022/04/10 03:25:16;;;;;;;1.70;1.20;;;6.90;56.00;;;;;;6273451;28;20478;-60
2022/04/10 03:28:19;;;;;;;0.90;0.90;;;6.90;55.80;;;;;;6273352;28;20985;-60
2022/04/10 03:31:22;;;;;;;1.47;1.13;;;6.90;55.60;;;;;;6273281;28;20474;-60
2022/04/10 03:34:26;;;;;;;1.43;1.03;;;6.90;55.70;;;;;;6273191;28;20473;-61
2022/04/10 03:37:29;;;;;;;1.13;0.90;;;7.00;56.10;;;;;;6273963;28;20466;-59
2022/04/10 03:40:33;;;;;;;1.00;0.90;;;7.00;56.00;;;;;;6274645;28;20470;-60
2022/04/10 03:43:36;;;;;;;1.47;0.83;;;7.00;56.00;;;;;;6274624;28;20785;-60
2022/04/10 03:46:39;;;;;;;1.73;1.47;;;7.00;55.90;;;;;;6274052;28;20485;-60
2022/04/10 03:49:43;;;;;;;1.20;1.10;;;7.00;55.90;;;;;;6274734;28;21036;-60
2022/04/10 03:52:46;;;;;;;2.00;1.23;;;7.10;56.50;;;;;;6273837;28;20478;-60
2022/04/10 03:55:51;;;;;;;1.27;1.20;;;7.10;56.60;;;;;;6274818;28;20812;-60
2022/04/10 03:58:54;;;;;;;2.33;1.20;;;7.10;56.60;;;;;;6274771;28;20825;-62
2022/04/10 04:01:57;;;;;;;1.40;1.30;;;7.10;57.10;;;;;;6275803;28;20481;-59
2022/04/10 04:05:00;;;;;;;1.50;1.10;;;7.00;56.80;;;;;;6279494;28;20845;-60
2022/04/10 04:08:04;;;;;;;2.60;1.50;;;7.00;55.70;;;;;;6279584;28;20466;-60
2022/04/10 04:11:08;;;;;;;1.17;1.10;;;7.00;56.20;;;;;;6279582;28;20485;-61
2022/04/10 04:14:13;;;;;;;3.70;1.63;;;7.00;56.40;;;;;;6278167;28;20478;-61
2022/04/10 04:17:16;;;;;;;2.60;2.40;;;7.00;57.10;;;;;;6278022;28;20449;-60
2022/04/10 04:20:19;;;;;;;1.80;1.70;;;7.00;58.20;;;;;;6277807;28;20442;-60
2022/04/10 04:23:22;;;;;;;2.10;1.30;;;6.90;58.60;;;;;;6277982;28;20465;-60
2022/04/10 04:26:27;;;;;;;2.90;1.50;;;6.80;59.30;;;;;;6277754;28;20474;-60
2022/04/10 04:29:30;;;;;;;3.83;1.40;;;6.70;59.30;;;;;;6278524;28;20477;-61
2022/04/10 04:32:33;;;;;;;1.70;1.47;;;6.60;59.60;;;;;;6278472;28;20601;-61
2022/04/10 04:35:36;;;;;;;1.87;1.60;;;6.40;59.50;;;;;;6279431;28;20473;-61
2022/04/10 04:38:39;;;;;;;2.53;1.60;;;6.40;60.20;;;;;;6279083;28;20477;-61
2022/04/10 04:41:47;;;;;;;1.30;1.20;;;6.40;60.50;;;;;;6279184;28;20478;-61
2022/04/10 04:44:50;;;;;;;1.97;1.77;;;6.40;60.80;;;;;;6278411;28;20825;-61
2022/04/10 04:47:53;;;;;;;3.30;2.10;;;6.40;61.00;;;;;;6278866;28;20481;-62
2022/04/10 04:50:57;;;;;;;2.73;1.70;;;6.40;61.10;;;;;;6278814;28;20462;-60
2022/04/10 04:54:01;;;;;;;4.20;2.10;;;6.30;61.50;;;;;;6278648;28;20477;-60
2022/04/10 04:57:06;;;;;;;2.87;2.50;;;6.30;62.30;;;;;;6278965;28;20477;-60
2022/04/10 05:00:11;;;;;;;2.60;2.00;;;6.10;63.10;;;;;;6278480;28;20469;-60
2022/04/10 05:03:16;;;;;;;2.60;1.87;;;6.10;63.70;;;;;;6278266;28;20969;-60
2022/04/10 05:06:19;;;;;;;3.03;2.17;;;6.10;64.30;;;;;;6277951;28;20483;-60
2022/04/10 05:09:22;;;;;;;4.73;2.27;;;6.10;65.00;;;;;;6278264;28;20477;-60
2022/04/10 05:12:27;;;;;;;4.90;2.33;;;6.00;65.70;;;;;;6277794;28;20470;-60
2022/04/10 05:15:31;;;;;;;2.57;2.00;;;5.90;67.00;;;;;;6277665;28;20470;-60
2022/04/10 05:18:34;;;;;;;2.30;1.87;;;5.90;67.20;;;;;;6278135;28;20474;-60
2022/04/10 05:21:37;;;;;;;3.37;2.00;;;6.00;66.70;;;;;;6278238;28;20489;-60
2022/04/10 05:24:40;;;;;;;1.80;1.70;;;6.00;66.80;;;;;;6277433;28;20477;-60
2022/04/10 05:27:45;;;;;;;4.40;2.07;;;6.10;67.00;;;;;;6278508;28;20484;-60
2022/04/10 05:30:48;;;;;;;3.13;2.23;;;6.10;66.80;;;;;;6278113;28;20474;-60
2022/04/10 05:33:52;;;;;;;2.90;2.10;;;6.00;66.80;;;;;;6277856;28;20478;-60
2022/04/10 05:36:55;;;;;;;5.43;4.10;;;6.10;66.80;;;;;;6277900;28;20471;-60
2022/04/10 05:39:58;;;;;;;3.13;2.10;;;6.10;66.80;;;;;;6277634;28;20968;-60
2022/04/10 05:43:02;;;;;;;2.57;2.37;;;6.10;67.40;;;;;;6277643;28;20471;-60
2022/04/10 05:46:05;;;;;;;2.93;2.57;;;6.20;67.70;;;;;;6277481;28;20474;-60
2022/04/10 05:49:08;;;;;;;3.53;3.20;;;6.20;67.80;;;;;;6277277;28;20962;-60
2022/04/10 05:52:11;;;;;;;1.93;1.83;;;6.20;67.90;;;;;;6277194;28;20474;-60
2022/04/10 05:55:17;;;;;;;5.20;2.50;;;6.20;68.40;;;;;;6278870;28;20473;-60
2022/04/10 05:58:22;;;;;;;3.20;3.00;;;6.30;68.90;;;;;;6278021;28;20470;-61
2022/04/10 06:01:25;;;;;;;2.53;2.33;;;6.60;68.70;;;;;;6277603;28;20470;-60
2022/04/10 06:04:29;;;;;;;3.13;2.57;;;6.90;68.70;;;;;;6276732;28;20480;-60
2022/04/10 06:07:32;;;;;;;3.57;3.10;;;7.50;67.20;;;;;;6276626;28;20466;-60
2022/04/10 06:10:35;;;;;;;5.33;3.00;;;8.60;66.00;;;;;;6277198;28;20470;-60
2022/04/10 06:13:39;;;;;;;3.00;2.30;;;9.70;61.80;;;;;;6276430;28;20815;-60
2022/04/10 06:16:42;;;;;;;2.43;2.20;;;10.70;58.80;;;;;;6276578;28;20487;-60
2022/04/10 06:19:45;;;;;;;5.30;2.90;;;12.20;55.80;;;;;;6276598;28;20961;-60
2022/04/10 06:22:48;;;;;;;2.67;2.30;;;13.20;52.70;;;;;;6276641;28;20469;-60
2022/04/10 06:25:52;;;;;;;2.63;2.13;;;14.50;50.60;;;;;;6275951;28;20952;-60
2022/04/10 06:28:56;;;;;;;3.27;2.60;;;15.80;46.80;;;;;;6276456;28;20488;-61
2022/04/10 06:32:00;;;;;;;1.70;1.60;;;16.90;44.00;;;;;;6276780;28;20493;-61
2022/04/10 06:35:03;;;;;;;3.63;1.50;;;17.80;39.60;;;;;;6278582;28;20497;-61
2022/04/10 06:38:06;;;;;;;3.90;1.93;;;18.20;36.20;;;;;;6277994;28;20858;-61
2022/04/10 06:41:09;;;;;;;1.70;1.23;;;18.70;35.00;;;;;;6277648;28;20442;-61
2022/04/10 06:44:14;;;;;;;2.57;1.10;;;19.20;33.10;;;;;;6276299;28;20469;-61
2022/04/10 06:47:17;;;;;;;2.00;1.20;;;19.20;31.90;;;;;;6276418;28;20902;-61
2022/04/10 06:50:20;;;;;;;1.10;0.90;;;20.00;31.10;;;;;;6275963;28;20235;-61
2022/04/10 06:53:26;;;;;;;2.10;1.03;;;20.80;30.10;;;;;;6276253;28;20231;-61
2022/04/10 06:56:29;;;;;;;2.17;1.40;;;21.30;28.90;;;;;;6275839;28;20659;-61
2022/04/10 06:59:33;;;;;;;4.87;1.27;;;21.10;28.40;;;;;;6276093;28;20239;-61
2022/04/10 07:02:36;;;;;;;1.20;1.03;;;21.90;28.20;;;;;;6276493;28;20242;-61
2022/04/10 07:05:40;;;;;;;3.13;1.30;;;22.90;27.10;;;;;;6276524;28;20297;-61
2022/04/10 07:08:43;;;;;;;2.40;1.07;;;23.90;25.60;;;;;;6275679;28;20235;-61
2022/04/10 07:11:47;;;;;;;1.47;1.37;;;23.60;25.80;;;;;;6275477;28;20235;-62
2022/04/10 07:14:51;;;;;;;1.83;1.27;;;23.40;25.20;;;;;;6277226;28;20240;-62
2022/04/10 07:17:56;;;;;;;2.00;1.10;;;22.50;25.30;;;;;;6277429;28;20567;-62
2022/04/10 07:20:59;;;;;;;2.33;0.90;;;23.00;25.60;;;;;;6276303;28;20227;-62
2022/04/10 07:24:01;;;;;;;3.47;1.20;;;24.60;24.70;;;;;;6275432;28;20247;-62
2022/04/10 07:27:04;;;;;;;1.73;1.03;;;25.40;23.40;;;;;;6275562;28;20232;-62
2022/04/10 07:30:10;;;;;;;1.73;0.93;;;25.80;22.70;;;;;;6275517;28;20693;-62
2022/04/10 07:33:13;;;;;;;5.03;0.90;;;27.40;22.20;;;;;;6276722;28;20234;-62
2022/04/10 07:36:16;;;;;;;1.23;0.83;;;28.80;21.60;;;;;;6275363;28;20654;-63
2022/04/10 07:39:19;;;;;;;1.50;0.90;;;29.40;19.80;;;;;;6280533;28;20234;-62
2022/04/10 07:42:22;;;;;;;1.50;0.90;;;28.10;20.00;;;;;;6276597;28;20227;-61
2022/04/10 07:49:02;;;;;;;2.20;1.13;;;25.00;20.90;;;;;;6275838;28;20646;-61
2022/04/10 07:52:06;;;;;;;1.57;1.00;;;24.20;22.30;;;;;;6276663;28;20235;-63
2022/04/10 07:55:09;;;;;;;1.40;0.87;;;24.20;21.90;;;;;;6276754;28;20231;-62
2022/04/10 07:58:12;;;;;;;1.57;1.00;;;23.60;22.40;;;;;;6275620;28;20228;-62
2022/04/10 08:01:17;;;;;;;1.20;1.10;;;22.20;22.70;;;;;;6274901;28;20228;-62
2022/04/10 08:04:20;;;;;;;2.53;1.80;;;21.70;23.80;;;;;;6275058;28;20820;-63
2022/04/10 08:07:23;;;;;;;1.27;0.90;;;22.00;23.80;;;;;;6274917;28;20235;-62
2022/04/10 08:10:26;;;;;;;0.93;0.80;;;20.60;23.20;;;;;;6274488;28;20231;-62
2022/04/10 08:13:32;;;;;;;1.07;0.63;;;18.80;25.00;;;;;;6274431;28;20243;-62
2022/04/10 08:16:37;;;;;;;3.10;1.00;;;19.60;25.50;;;;;;6274516;28;20293;-62
2022/04/10 08:19:40;;;;;;;1.70;0.90;;;21.90;25.10;;;;;;6274634;28;20234;-62
2022/04/10 08:22:49;;;;;;;3.67;1.10;;;24.70;21.40;;;;;;6274524;28;20235;-62
2022/04/10 08:25:52;;;;;;;1.40;1.20;;;25.20;20.50;;;;;;6276000;28;20242;-63
2022/04/10 08:28:55;;;;;;;2.30;1.10;;;25.50;19.90;;;;;;6275259;28;20231;-62
2022/04/10 08:32:00;;;;;;;3.80;2.07;;;26.40;19.60;;;;;;6276544;28;20234;-64
2022/04/10 08:35:03;;;;;;;2.07;1.23;;;26.00;19.60;;;;;;6277307;28;20231;-64
2022/04/10 08:38:07;;;;;;;1.13;1.03;;;26.20;19.80;;;;;;6274509;28;20223;-64
2022/04/10 08:41:11;;;;;;;1.40;1.20;;;27.50;19.30;;;;;;6275343;28;20522;-65
2022/04/10 08:44:17;;;;;;;1.60;1.10;;;26.50;18.90;;;;;;6276381;28;20219;-62
2022/04/10 08:47:22;;;;;;;2.13;1.10;;;25.40;19.70;;;;;;6274597;28;20214;-62
2022/04/10 08:50:26;;;;;;;2.47;1.40;;;27.10;19.10;;;;;;6299813;28;20241;-63
2022/04/10 08:53:35;;;;;;;2.20;1.63;;;27.60;18.60;;;;;;6303718;28;20236;-64
2022/04/10 08:56:38;;;;;;;2.60;1.97;;;26.60;18.30;;;;;;6300534;28;20227;-63
2022/04/10 08:59:42;;;;;;;4.30;1.53;;;25.80;19.20;;;;;;6292333;28;20234;-65
2022/04/10 09:02:51;;;;;;;2.30;1.20;;;25.50;18.50;;;;;;6285519;28;20250;-65
2022/04/10 09:06:05;;;;;;;1.27;1.10;;;23.90;19.50;;;;;;6279235;28;20228;-64
2022/04/10 09:09:12;;;;;;;2.40;1.20;;;24.30;20.50;;;;;;6280096;28;20575;-64
2022/04/10 09:12:17;;;;;;;2.50;1.40;;;25.20;19.00;;;;;;6278786;28;20239;-64
2022/04/10 09:15:31;;;;;;;1.37;1.23;;;25.00;19.30;;;;;;6294072;28;20242;-64
2022/04/10 09:18:46;;;;;;;1.43;1.10;;;27.40;18.00;;;;;;6303049;28;20222;-64
2022/04/10 09:21:49;;;;;;;1.70;1.50;;;30.00;17.10;;;;;;6302677;28;20693;-63
2022/04/10 09:25:11;;;;;;;1.30;1.17;;;31.80;16.00;;;;;;6302835;28;20241;-65
2022/04/10 09:28:15;;;;;;;1.90;1.60;;;33.30;14.80;;;;;;6302770;28;20230;-65
2022/04/10 09:31:29;;;;;;;1.20;1.10;;;30.70;15.10;;;;;;6295513;28;20227;-63
2022/04/10 09:34:33;;;;;;;2.13;1.20;;;27.70;15.80;;;;;;6277515;28;20239;-62
2022/04/10 09:37:57;;;;;;;3.03;1.40;;;25.20;17.70;;;;;;6277455;28;20259;-62
2022/04/10 09:41:13;;;;;;;2.40;1.40;;;23.10;18.90;;;;;;6277615;28;20231;-65
2022/04/10 09:44:20;;;;;;;1.70;1.60;;;21.50;19.90;;;;;;6277379;28;20220;-64
2022/04/10 09:47:26;;;;;;;1.87;1.23;;;21.20;20.70;;;;;;6277636;28;20196;-63
2022/04/10 09:50:32;;;;;;;1.80;1.33;;;20.50;21.30;;;;;;6276884;28;20234;-65
2022/04/10 09:53:35;;;;;;;1.30;1.20;;;19.60;21.10;;;;;;6277233;28;20236;-63
2022/04/10 09:56:38;;;;;;;2.73;1.20;;;18.70;21.90;;;;;;6277336;28;20231;-64
2022/04/10 09:59:43;;;;;;;1.27;1.17;;;17.90;22.80;;;;;;6296985;28;20239;-62
2022/04/10 10:02:47;;;;;;;1.30;1.10;;;17.60;23.10;;;;;;6301822;28;20349;-63
2022/04/10 10:05:53;;;;;;;1.13;1.03;;;17.40;24.10;;;;;;6291745;28;20595;-62
2022/04/10 10:08:56;;;;;;;1.23;1.13;;;17.30;23.90;;;;;;6276937;28;20485;-62
2022/04/10 10:12:00;;;;;;;0.70;0.70;;;16.90;23.80;;;;;;6276526;28;20477;-61
2022/04/10 10:15:04;;;;;;;1.90;1.00;;;16.70;24.10;;;;;;6292784;28;20474;-61
2022/04/10 10:18:09;;;;;;;1.30;1.20;;;16.50;24.50;;;;;;6301639;28;20466;-64
2022/04/10 10:21:15;;;;;;;2.17;1.10;;;16.20;23.90;;;;;;6279567;28;20475;-65
2022/04/10 10:24:22;;;;;;;1.30;1.20;;;16.00;24.70;;;;;;6303772;28;20483;-63
2022/04/10 10:27:58;;;;;;;1.20;1.10;;;16.40;25.00;;;;;;6313976;28;20480;-65
2022/04/10 10:31:18;;;;;;;2.27;1.20;;;16.60;23.60;;;;;;6300880;28;20461;-62
2022/04/10 10:34:25;;;;;;;1.43;0.90;;;17.10;24.10;;;;;;6276597;28;20469;-62
2022/04/10 10:37:31;;;;;;;1.00;0.90;;;17.10;24.20;;;;;;6282670;28;20477;-62
2022/04/10 10:40:34;;;;;;;1.37;0.90;;;16.80;24.40;;;;;;6309064;28;20803;-62
2022/04/10 10:43:38;;;;;;;0.97;0.87;;;16.60;24.10;;;;;;6325893;28;20472;-62
2022/04/10 10:46:57;;;;;;;1.27;1.17;;;16.60;23.50;;;;;;6325408;28;20468;-62
2022/04/10 10:50:00;;;;;;;1.20;1.10;;;16.90;24.20;;;;;;6325747;28;20552;-61
2022/04/10 10:53:08;;;;;;;1.97;1.77;;;17.10;24.50;;;;;;6324127;28;20515;-62
2022/04/10 10:56:15;;;;;;;2.40;1.20;;;17.20;23.60;;;;;;6324054;28;20518;-63
2022/04/10 10:59:39;;;;;;;2.90;2.00;;;17.00;24.30;;;;;;6301139;28;20555;-63
2022/04/10 11:02:49;;;;;;;1.83;1.30;;;16.50;23.50;;;;;;6298451;28;20477;-63
2022/04/10 11:06:04;;;;;;;1.30;0.97;;;16.50;24.90;;;;;;6287199;28;20958;-63
2022/04/10 11:09:22;;;;;;;1.50;1.33;;;16.60;24.10;;;;;;6275247;28;20794;-61
2022/04/10 11:12:31;;;;;;;1.13;1.03;;;16.80;24.40;;;;;;6275446;28;20494;-63
2022/04/10 11:15:45;;;;;;;1.90;0.80;;;16.80;23.80;;;;;;6277216;28;20490;-64
2022/04/10 11:18:51;;;;;;;1.67;1.57;;;17.10;24.00;;;;;;6274716;28;20463;-62
2022/04/10 11:21:56;;;;;;;1.67;0.90;;;17.20;24.20;;;;;;6275022;28;20494;-63
2022/04/10 11:25:05;;;;;;;0.97;0.97;;;17.20;24.50;;;;;;6288221;28;20821;-63
2022/04/10 11:28:10;;;;;;;1.00;0.90;;;17.40;25.10;;;;;;6298376;28;20481;-63
2022/04/10 11:31:30;;;;;;;0.80;0.77;;;17.50;23.70;;;;;;6298120;28;20973;-63
2022/04/10 11:34:41;;;;;;;1.37;1.20;;;17.60;23.80;;;;;;6297478;28;20470;-63
2022/04/10 11:37:47;;;;;;;2.03;0.87;;;17.70;23.60;;;;;;6298414;28;20474;-63
2022/04/10 11:40:53;;;;;;;1.23;0.90;;;17.70;23.60;;;;;;6299209;28;20473;-63
2022/04/10 11:43:59;;;;;;;1.70;0.90;;;17.50;23.70;;;;;;6299407;28;20530;-63
2022/04/10 11:47:05;;;;;;;1.20;1.10;;;17.40;23.70;;;;;;6299105;28;20469;-63
2022/04/10 11:50:11;;;;;;;2.10;1.40;;;17.40;24.80;;;;;;6298300;28;20472;-63
2022/04/10 11:53:15;;;;;;;2.37;1.73;;;17.50;23.60;;;;;;6299704;28;20492;-63
2022/04/10 11:56:20;;;;;;;2.33;1.40;;;17.40;23.80;;;;;;6299942;28;20525;-62
2022/04/10 11:59:23;;;;;;;1.77;0.80;;;17.40;24.10;;;;;;6299490;28;20445;-63
2022/04/10 12:02:26;;;;;;;1.60;1.20;;;17.50;24.10;;;;;;6299196;28;21027;-63
2022/04/10 12:05:30;;;;;;;0.90;0.90;;;17.50;23.70;;;;;;6292026;28;20470;-62
2022/04/10 12:08:33;;;;;;;0.87;0.87;;;17.10;23.30;;;;;;6274595;28;20470;-63
2022/04/10 12:11:42;;;;;;;1.47;1.20;;;17.10;24.10;;;;;;6275669;28;20972;-63
2022/04/10 12:14:46;;;;;;;2.30;0.93;;;17.00;23.90;;;;;;6280145;28;20918;-63
2022/04/10 12:18:03;;;;;;;0.83;0.83;;;16.70;24.10;;;;;;6282182;28;20484;-62
2022/04/10 12:21:10;;;;;;;3.73;1.10;;;16.70;24.50;;;;;;6277644;28;20481;-63
2022/04/10 12:24:21;;;;;;;0.90;0.80;;;16.70;24.70;;;;;;6287321;28;20813;-63
2022/04/10 12:27:25;;;;;;;1.00;0.90;;;17.00;24.30;;;;;;6304833;28;20480;-63
2022/04/10 12:30:29;;;;;;;1.10;0.80;;;17.10;24.30;;;;;;6303889;28;20973;-63
2022/04/10 12:33:34;;;;;;;1.07;0.83;;;17.30;24.00;;;;;;6303453;28;20473;-62
2022/04/10 12:36:46;;;;;;;1.37;0.70;;;16.90;23.80;;;;;;6304207;28;20476;-63
2022/04/10 12:39:49;;;;;;;1.30;0.90;;;16.50;24.60;;;;;;6303864;28;20465;-63
2022/04/10 12:42:59;;;;;;;1.23;1.10;;;16.40;24.40;;;;;;6304404;28;20469;-63
2022/04/10 12:46:09;;;;;;;1.20;0.97;;;16.20;24.80;;;;;;6303194;28;20473;-62
2022/04/10 12:49:13;;;;;;;0.70;0.70;;;16.10;24.50;;;;;;6303361;28;20615;-63
2022/04/10 12:52:19;;;;;;;0.77;0.70;;;15.90;24.70;;;;;;6303416;28;20480;-63
2022/04/10 12:55:24;;;;;;;0.70;0.60;;;15.70;25.90;;;;;;6303453;28;20494;-64
2022/04/10 12:58:29;;;;;;;0.90;0.90;;;15.60;26.40;;;;;;6290980;28;20773;-64
2022/04/10 13:01:33;;;;;;;1.50;0.70;;;15.40;26.80;;;;;;6278335;28;20477;-64
2022/04/10 13:04:36;;;;;;;1.67;0.93;;;15.10;27.30;;;;;;6277984;28;20941;-63
2022/04/10 13:07:58;;;;;;;1.83;0.87;;;14.90;28.10;;;;;;6278290;28;20474;-63
2022/04/10 13:11:02;;;;;;;0.57;0.53;;;14.80;28.30;;;;;;6277977;28;20478;-63
2022/04/10 13:14:26;;;;;;;0.60;0.60;;;14.80;28.80;;;;;;6277309;28;20526;-64
2022/04/10 13:17:34;;;;;;;3.90;0.83;;;14.70;29.40;;;;;;6277956;28;20487;-63
2022/04/10 13:20:38;;;;;;;1.17;1.00;;;14.50;30.10;;;;;;6278200;28;20688;-63
2022/04/10 13:23:41;;;;;;;0.80;0.80;;;14.30;30.50;;;;;;6281281;28;20461;-63
2022/04/10 13:26:46;;;;;;;1.53;1.07;;;14.40;30.80;;;;;;6303058;28;20481;-62
2022/04/10 13:29:50;;;;;;;0.80;0.80;;;14.70;31.00;;;;;;6302296;28;20999;-63
2022/04/10 13:32:53;;;;;;;1.63;1.17;;;15.10;30.60;;;;;;6302273;28;20991;-62
2022/04/10 13:35:56;;;;;;;1.20;0.90;;;15.40;29.80;;;;;;6301385;28;20466;-61
2022/04/10 13:38:59;;;;;;;1.03;0.80;;;15.40;29.50;;;;;;6301479;28;20477;-62
2022/04/10 13:42:03;;;;;;;1.07;0.97;;;15.30;30.00;;;;;;6302374;28;20480;-61
2022/04/10 13:45:09;;;;;;;1.37;1.07;;;15.20;29.00;;;;;;6301384;28;20476;-61
2022/04/10 13:48:12;;;;;;;1.50;1.00;;;15.10;29.10;;;;;;6301865;28;20483;-63
2022/04/10 13:51:15;;;;;;;0.97;0.97;;;15.10;29.80;;;;;;6301289;28;20473;-63
2022/04/10 13:54:18;;;;;;;1.80;1.23;;;15.10;29.50;;;;;;6301887;28;20484;-63
2022/04/10 13:57:21;;;;;;;1.40;1.30;;;14.90;30.00;;;;;;6298680;28;20470;-63
2022/04/10 14:00:26;;;;;;;1.20;0.90;;;14.70;29.40;;;;;;6279928;28;20937;-63
2022/04/10 14:03:29;;;;;;;1.37;0.93;;;14.50;29.40;;;;;;6278205;28;20474;-63
2022/04/10 14:06:33;;;;;;;0.77;0.77;;;14.30;29.60;;;;;;6275609;28;20483;-62
2022/04/10 14:09:36;;;;;;;1.10;1.00;;;14.30;30.10;;;;;;6277576;28;20482;-63
2022/04/10 14:12:39;;;;;;;1.20;1.20;;;14.10;30.80;;;;;;6301351;28;20469;-63
2022/04/10 14:15:44;;;;;;;1.67;1.10;;;14.10;31.00;;;;;;6300590;28;20961;-63
2022/04/10 14:18:47;;;;;;;2.33;1.00;;;14.00;31.40;;;;;;6300778;28;20511;-63
2022/04/10 14:21:50;;;;;;;2.37;0.97;;;13.90;31.30;;;;;;6300691;28;20470;-63
2022/04/10 14:24:53;;;;;;;1.17;1.07;;;13.80;31.30;;;;;;6301560;28;20472;-63
2022/04/10 14:27:56;;;;;;;1.30;1.00;;;13.70;30.70;;;;;;6301134;28;21142;-63
2022/04/10 14:31:01;;;;;;;1.40;1.10;;;13.50;32.00;;;;;;6300205;28;21055;-63
2022/04/10 14:34:05;;;;;;;0.73;0.73;;;13.50;31.60;;;;;;6299720;28;20473;-61
2022/04/10 14:37:08;;;;;;;0.83;0.83;;;13.50;31.10;;;;;;6298919;28;20477;-63
2022/04/10 14:40:12;;;;;;;0.87;0.70;;;13.50;31.20;;;;;;6299118;28;20473;-61
2022/04/10 14:43:15;;;;;;;1.57;0.80;;;13.60;31.10;;;;;;6297621;28;20473;-62
2022/04/10 14:46:20;;;;;;;1.23;0.83;;;13.60;30.60;;;;;;6300636;28;20485;-61
2022/04/10 14:49:23;;;;;;;0.70;0.70;;;13.60;30.80;;;;;;6299754;28;20987;-62
2022/04/10 14:52:26;;;;;;;0.70;0.70;;;13.60;30.60;;;;;;6299392;28;20478;-62
2022/04/10 14:55:30;;;;;;;2.00;1.00;;;13.70;30.70;;;;;;6298139;28;20488;-62
2022/04/10 14:58:33;;;;;;;1.70;0.90;;;13.60;30.00;;;;;;6299037;28;20485;-63
2022/04/10 15:01:37;;;;;;;1.37;0.90;;;13.50;30.50;;;;;;6299386;28;20480;-62
2022/04/10 15:04:41;;;;;;;2.07;1.03;;;13.50;30.50;;;;;;6298799;28;20478;-62
2022/04/10 15:07:50;;;;;;;1.40;1.00;;;13.40;30.60;;;;;;6275050;28;20800;-61
2022/04/10 15:10:53;;;;;;;0.70;0.60;;;13.30;31.80;;;;;;6265523;28;20497;-61
2022/04/10 15:14:02;;;;;;;1.13;1.00;;;13.10;31.70;;;;;;6273850;28;20528;-61
2022/04/10 15:17:07;;;;;;;0.70;0.70;;;13.20;32.50;;;;;;6274631;28;20466;-61
2022/04/10 15:20:11;;;;;;;0.90;0.90;;;13.20;31.10;;;;;;6273786;28;20462;-62
2022/04/10 15:23:14;;;;;;;0.80;0.80;;;13.10;30.90;;;;;;6274388;28;20945;-62
2022/04/10 15:26:17;;;;;;;1.73;1.00;;;13.10;29.70;;;;;;6299530;28;20457;-61
2022/04/10 15:29:20;;;;;;;1.93;1.27;;;13.10;29.40;;;;;;6299060;28;20518;-61
2022/04/10 15:32:25;;;;;;;2.50;0.70;;;13.10;29.90;;;;;;6299217;28;20465;-61
2022/04/10 15:35:28;;;;;;;0.87;0.87;;;13.10;30.10;;;;;;6299312;28;20936;-62
2022/04/10 15:38:31;;;;;;;0.80;0.70;;;13.10;32.30;;;;;;6299191;28;20940;-61
2022/04/10 15:41:42;;;;;;;1.17;1.07;;;13.10;32.50;;;;;;6299424;28;20469;-61
2022/04/10 15:44:46;;;;;;;1.23;1.03;;;12.90;33.40;;;;;;6301223;28;20500;-62
2022/04/10 15:47:50;;;;;;;1.10;0.87;;;12.90;33.70;;;;;;6300477;28;20479;-64
2022/04/10 15:50:54;;;;;;;1.13;1.03;;;12.80;33.90;;;;;;6304024;28;20525;-63
2022/04/10 15:53:57;;;;;;;1.43;0.87;;;12.80;33.20;;;;;;6301655;28;20627;-62
2022/04/10 15:57:01;;;;;;;0.80;0.80;;;12.60;33.30;;;;;;6299998;28;20473;-62
2022/04/10 16:00:06;;;;;;;1.00;0.80;;;12.50;33.40;;;;;;6279934;28;20481;-63
2022/04/10 16:03:10;;;;;;;0.97;0.90;;;12.60;33.60;;;;;;6280538;28;20474;-63
2022/04/10 16:06:13;;;;;;;1.00;0.80;;;12.50;33.30;;;;;;6280254;28;20466;-62
2022/04/10 16:09:16;;;;;;;0.80;0.80;;;12.50;33.90;;;;;;6279997;28;20489;-63
2022/04/10 16:12:19;;;;;;;1.60;1.13;;;12.50;34.00;;;;;;6275316;28;20486;-62
2022/04/10 16:15:22;;;;;;;1.13;0.93;;;12.60;33.50;;;;;;6278923;28;20478;-62